sensor_id;sensor_type;location;lat;lon;timestamp;P1;durP1;ratioP1;P2;durP2;ratioP2
5945;SDS011;2998;48.206;16.394;2022-07-24T00:01:52;9.17;;;8.30;;
5945;SDS011;2998;48.206;16.394;2022-07-24T00:04:20;9.23;;;8.27;;
5945;SDS011;2998;48.206;16.394;2022-07-24T00:06:51;10.00;;;8.97;;
5945;SDS011;2998;48.206;16.394;2022-07-24T00:09:22;8.73;;;7.97;;
5945;SDS011;2998;48.206;16.394;2022-07-24T00:11:50;9.77;;;8.60;;
5945;SDS011;2998;48.206;16.394;2022-07-24T00:14:19;9.10;;;8.13;;
5945;SDS011;2998;48.206;16.394;2022-07-24T00:16:50;10.30;;;7.40;;
5945;SDS011;2998;48.206;16.394;2022-07-24T00:19:21;9.00;;;8.23;;
5945;SDS011;2998;48.206;16.394;2022-07-24T00:21:50;7.70;;;7.10;;
5945;SDS011;2998;48.206;16.394;2022-07-24T00:24:21;9.50;;;8.70;;
5945;SDS011;2998;48.206;16.394;2022-07-24T00:26:51;8.47;;;7.83;;
5945;SDS011;2998;48.206;16.394;2022-07-24T00:29:19;9.67;;;8.23;;
5945;SDS011;2998;48.206;16.394;2022-07-24T00:31:47;9.07;;;8.27;;
5945;SDS011;2998;48.206;16.394;2022-07-24T00:34:17;12.77;;;9.70;;
5945;SDS011;2998;48.206;16.394;2022-07-24T00:36:47;9.63;;;8.50;;
5945;SDS011;2998;48.206;16.394;2022-07-24T00:39:15;10.40;;;9.50;;
5945;SDS011;2998;48.206;16.394;2022-07-24T00:41:44;10.33;;;9.40;;
5945;SDS011;2998;48.206;16.394;2022-07-24T00:44:15;9.47;;;8.57;;
5945;SDS011;2998;48.206;16.394;2022-07-24T00:46:44;9.73;;;8.73;;
5945;SDS011;2998;48.206;16.394;2022-07-24T00:49:15;10.10;;;9.07;;
5945;SDS011;2998;48.206;16.394;2022-07-24T00:51:48;10.20;;;9.40;;
5945;SDS011;2998;48.206;16.394;2022-07-24T00:54:21;10.40;;;9.50;;
5945;SDS011;2998;48.206;16.394;2022-07-24T00:56:52;9.63;;;8.53;;
5945;SDS011;2998;48.206;16.394;2022-07-24T00:59:22;8.80;;;8.00;;
5945;SDS011;2998;48.206;16.394;2022-07-24T01:01:51;9.67;;;8.77;;
5945;SDS011;2998;48.206;16.394;2022-07-24T01:04:20;9.07;;;8.37;;
5945;SDS011;2998;48.206;16.394;2022-07-24T01:06:49;9.77;;;8.87;;
5945;SDS011;2998;48.206;16.394;2022-07-24T01:09:17;8.80;;;8.00;;
5945;SDS011;2998;48.206;16.394;2022-07-24T01:11:47;9.80;;;9.00;;
5945;SDS011;2998;48.206;16.394;2022-07-24T01:14:19;8.63;;;7.83;;
5945;SDS011;2998;48.206;16.394;2022-07-24T01:16:47;8.63;;;8.03;;
5945;SDS011;2998;48.206;16.394;2022-07-24T01:19:16;9.97;;;9.07;;
5945;SDS011;2998;48.206;16.394;2022-07-24T01:21:47;9.30;;;8.50;;
5945;SDS011;2998;48.206;16.394;2022-07-24T01:24:17;9.20;;;8.30;;
5945;SDS011;2998;48.206;16.394;2022-07-24T01:26:46;10.80;;;9.80;;
5945;SDS011;2998;48.206;16.394;2022-07-24T01:29:16;10.33;;;9.43;;
5945;SDS011;2998;48.206;16.394;2022-07-24T01:31:46;11.67;;;8.43;;
5945;SDS011;2998;48.206;16.394;2022-07-24T01:34:15;9.37;;;8.57;;
5945;SDS011;2998;48.206;16.394;2022-07-24T01:36:44;10.77;;;9.60;;
5945;SDS011;2998;48.206;16.394;2022-07-24T01:39:14;10.03;;;8.80;;
5945;SDS011;2998;48.206;16.394;2022-07-24T01:41:42;9.83;;;9.03;;
5945;SDS011;2998;48.206;16.394;2022-07-24T01:44:10;10.10;;;9.00;;
5945;SDS011;2998;48.206;16.394;2022-07-24T01:46:39;9.60;;;8.70;;
5945;SDS011;2998;48.206;16.394;2022-07-24T01:49:09;10.27;;;9.27;;
5945;SDS011;2998;48.206;16.394;2022-07-24T01:51:38;9.00;;;8.30;;
5945;SDS011;2998;48.206;16.394;2022-07-24T01:54:07;10.20;;;9.40;;
5945;SDS011;2998;48.206;16.394;2022-07-24T01:56:39;9.47;;;8.67;;
5945;SDS011;2998;48.206;16.394;2022-07-24T01:59:09;11.07;;;9.97;;
5945;SDS011;2998;48.206;16.394;2022-07-24T02:01:41;9.73;;;9.03;;
5945;SDS011;2998;48.206;16.394;2022-07-24T02:04:11;10.57;;;9.37;;
5945;SDS011;2998;48.206;16.394;2022-07-24T02:06:40;12.30;;;11.10;;
5945;SDS011;2998;48.206;16.394;2022-07-24T02:09:10;12.73;;;11.60;;
5945;SDS011;2998;48.206;16.394;2022-07-24T02:11:40;13.27;;;11.97;;
5945;SDS011;2998;48.206;16.394;2022-07-24T02:14:09;13.23;;;11.50;;
5945;SDS011;2998;48.206;16.394;2022-07-24T02:16:37;12.57;;;11.53;;
5945;SDS011;2998;48.206;16.394;2022-07-24T02:19:06;13.67;;;12.40;;
5945;SDS011;2998;48.206;16.394;2022-07-24T02:21:34;14.37;;;13.17;;
5945;SDS011;2998;48.206;16.394;2022-07-24T02:24:04;14.50;;;12.50;;
5945;SDS011;2998;48.206;16.394;2022-07-24T02:26:32;14.43;;;12.90;;
5945;SDS011;2998;48.206;16.394;2022-07-24T02:29:04;13.73;;;12.30;;
5945;SDS011;2998;48.206;16.394;2022-07-24T02:31:35;13.37;;;12.07;;
5945;SDS011;2998;48.206;16.394;2022-07-24T02:34:04;14.07;;;12.83;;
5945;SDS011;2998;48.206;16.394;2022-07-24T02:36:33;14.10;;;12.90;;
5945;SDS011;2998;48.206;16.394;2022-07-24T02:39:03;15.07;;;13.67;;
5945;SDS011;2998;48.206;16.394;2022-07-24T02:41:32;16.00;;;14.50;;
5945;SDS011;2998;48.206;16.394;2022-07-24T02:44:00;16.77;;;15.07;;
5945;SDS011;2998;48.206;16.394;2022-07-24T02:46:30;13.57;;;12.20;;
5945;SDS011;2998;48.206;16.394;2022-07-24T02:48:59;15.47;;;14.07;;
5945;SDS011;2998;48.206;16.394;2022-07-24T02:51:28;15.60;;;14.10;;
5945;SDS011;2998;48.206;16.394;2022-07-24T02:53:56;16.50;;;14.70;;
5945;SDS011;2998;48.206;16.394;2022-07-24T02:56:26;17.30;;;15.70;;
5945;SDS011;2998;48.206;16.394;2022-07-24T02:58:55;19.07;;;17.00;;
5945;SDS011;2998;48.206;16.394;2022-07-24T03:01:23;17.33;;;15.50;;
5945;SDS011;2998;48.206;16.394;2022-07-24T03:03:53;19.10;;;17.13;;
5945;SDS011;2998;48.206;16.394;2022-07-24T03:06:22;16.63;;;14.87;;
5945;SDS011;2998;48.206;16.394;2022-07-24T03:08:51;18.50;;;16.63;;
5945;SDS011;2998;48.206;16.394;2022-07-24T03:11:19;16.53;;;14.93;;
5945;SDS011;2998;48.206;16.394;2022-07-24T03:13:50;18.10;;;16.07;;
5945;SDS011;2998;48.206;16.394;2022-07-24T03:16:18;16.83;;;15.23;;
5945;SDS011;2998;48.206;16.394;2022-07-24T03:18:47;19.50;;;16.90;;
5945;SDS011;2998;48.206;16.394;2022-07-24T03:21:17;16.60;;;15.20;;
5945;SDS011;2998;48.206;16.394;2022-07-24T03:24:06;17.53;;;15.83;;
5945;SDS011;2998;48.206;16.394;2022-07-24T03:26:36;18.90;;;17.20;;
5945;SDS011;2998;48.206;16.394;2022-07-24T03:29:04;18.37;;;16.73;;
5945;SDS011;2998;48.206;16.394;2022-07-24T03:31:34;18.33;;;16.70;;
5945;SDS011;2998;48.206;16.394;2022-07-24T03:34:04;19.33;;;17.40;;
5945;SDS011;2998;48.206;16.394;2022-07-24T03:36:34;18.50;;;16.70;;
5945;SDS011;2998;48.206;16.394;2022-07-24T03:39:02;16.60;;;14.90;;
5945;SDS011;2998;48.206;16.394;2022-07-24T03:41:32;17.57;;;15.80;;
5945;SDS011;2998;48.206;16.394;2022-07-24T03:44:02;16.23;;;14.67;;
5945;SDS011;2998;48.206;16.394;2022-07-24T03:46:30;19.40;;;17.60;;
5945;SDS011;2998;48.206;16.394;2022-07-24T03:48:59;17.93;;;16.03;;
5945;SDS011;2998;48.206;16.394;2022-07-24T03:51:29;18.07;;;16.37;;
5945;SDS011;2998;48.206;16.394;2022-07-24T03:54:02;17.23;;;15.60;;
5945;SDS011;2998;48.206;16.394;2022-07-24T03:56:33;18.13;;;16.53;;
5945;SDS011;2998;48.206;16.394;2022-07-24T03:59:01;15.97;;;14.47;;
5945;SDS011;2998;48.206;16.394;2022-07-24T04:01:30;16.20;;;14.60;;
5945;SDS011;2998;48.206;16.394;2022-07-24T04:03:58;16.90;;;15.20;;
5945;SDS011;2998;48.206;16.394;2022-07-24T04:06:34;18.20;;;15.23;;
5945;SDS011;2998;48.206;16.394;2022-07-24T04:09:05;17.50;;;15.70;;
5945;SDS011;2998;48.206;16.394;2022-07-24T04:11:34;16.80;;;15.10;;
5945;SDS011;2998;48.206;16.394;2022-07-24T04:14:03;16.73;;;15.13;;
5945;SDS011;2998;48.206;16.394;2022-07-24T04:16:32;16.47;;;14.97;;
5945;SDS011;2998;48.206;16.394;2022-07-24T04:19:00;16.07;;;14.47;;
5945;SDS011;2998;48.206;16.394;2022-07-24T04:21:35;17.43;;;15.80;;
5945;SDS011;2998;48.206;16.394;2022-07-24T04:24:05;16.73;;;15.23;;
5945;SDS011;2998;48.206;16.394;2022-07-24T04:26:34;19.27;;;17.27;;
5945;SDS011;2998;48.206;16.394;2022-07-24T04:29:04;37.00;;;31.33;;
5945;SDS011;2998;48.206;16.394;2022-07-24T04:31:33;22.47;;;20.27;;
5945;SDS011;2998;48.206;16.394;2022-07-24T04:34:02;15.70;;;14.20;;
5945;SDS011;2998;48.206;16.394;2022-07-24T04:36:33;16.37;;;14.87;;
5945;SDS011;2998;48.206;16.394;2022-07-24T04:39:03;14.03;;;12.73;;
5945;SDS011;2998;48.206;16.394;2022-07-24T04:41:36;16.07;;;14.47;;
5945;SDS011;2998;48.206;16.394;2022-07-24T04:44:05;17.93;;;16.10;;
5945;SDS011;2998;48.206;16.394;2022-07-24T04:46:35;19.83;;;16.80;;
5945;SDS011;2998;48.206;16.394;2022-07-24T04:49:05;17.23;;;15.53;;
5945;SDS011;2998;48.206;16.394;2022-07-24T04:51:34;19.57;;;15.90;;
5945;SDS011;2998;48.206;16.394;2022-07-24T04:54:07;18.33;;;16.53;;
5945;SDS011;2998;48.206;16.394;2022-07-24T04:56:35;18.00;;;16.30;;
5945;SDS011;2998;48.206;16.394;2022-07-24T04:59:04;19.37;;;17.60;;
5945;SDS011;2998;48.206;16.394;2022-07-24T05:01:33;19.20;;;17.23;;
5945;SDS011;2998;48.206;16.394;2022-07-24T05:04:01;16.30;;;14.83;;
5945;SDS011;2998;48.206;16.394;2022-07-24T05:06:29;18.67;;;15.47;;
5945;SDS011;2998;48.206;16.394;2022-07-24T05:08:57;16.60;;;15.10;;
5945;SDS011;2998;48.206;16.394;2022-07-24T05:11:29;18.27;;;16.60;;
5945;SDS011;2998;48.206;16.394;2022-07-24T05:13:57;18.67;;;16.77;;
5945;SDS011;2998;48.206;16.394;2022-07-24T05:16:26;17.93;;;16.20;;
5945;SDS011;2998;48.206;16.394;2022-07-24T05:18:57;19.47;;;16.07;;
5945;SDS011;2998;48.206;16.394;2022-07-24T05:21:28;20.43;;;16.07;;
5945;SDS011;2998;48.206;16.394;2022-07-24T05:23:56;16.80;;;15.20;;
5945;SDS011;2998;48.206;16.394;2022-07-24T05:26:29;18.13;;;16.50;;
5945;SDS011;2998;48.206;16.394;2022-07-24T05:28:59;18.67;;;17.07;;
5945;SDS011;2998;48.206;16.394;2022-07-24T05:31:27;22.20;;;15.30;;
5945;SDS011;2998;48.206;16.394;2022-07-24T05:33:59;17.27;;;15.50;;
5945;SDS011;2998;48.206;16.394;2022-07-24T05:36:30;15.37;;;13.97;;
5945;SDS011;2998;48.206;16.394;2022-07-24T05:38:58;15.37;;;14.07;;
5945;SDS011;2998;48.206;16.394;2022-07-24T05:41:30;15.80;;;14.33;;
5945;SDS011;2998;48.206;16.394;2022-07-24T05:43:59;15.27;;;13.70;;
5945;SDS011;2998;48.206;16.394;2022-07-24T05:46:28;16.60;;;15.03;;
5945;SDS011;2998;48.206;16.394;2022-07-24T05:48:58;14.30;;;13.07;;
5945;SDS011;2998;48.206;16.394;2022-07-24T05:51:29;15.33;;;13.93;;
5945;SDS011;2998;48.206;16.394;2022-07-24T05:53:58;16.30;;;14.73;;
5945;SDS011;2998;48.206;16.394;2022-07-24T05:56:28;15.87;;;14.47;;
5945;SDS011;2998;48.206;16.394;2022-07-24T05:58:59;14.57;;;13.27;;
5945;SDS011;2998;48.206;16.394;2022-07-24T06:01:27;15.37;;;14.00;;
5945;SDS011;2998;48.206;16.394;2022-07-24T06:03:56;14.07;;;12.93;;
5945;SDS011;2998;48.206;16.394;2022-07-24T06:06:25;14.27;;;12.77;;
5945;SDS011;2998;48.206;16.394;2022-07-24T06:08:55;14.13;;;12.83;;
5945;SDS011;2998;48.206;16.394;2022-07-24T06:11:23;11.47;;;10.67;;
5945;SDS011;2998;48.206;16.394;2022-07-24T06:13:53;12.67;;;11.67;;
5945;SDS011;2998;48.206;16.394;2022-07-24T06:16:24;11.17;;;10.23;;
5945;SDS011;2998;48.206;16.394;2022-07-24T06:18:53;10.93;;;10.03;;
5945;SDS011;2998;48.206;16.394;2022-07-24T06:21:21;12.10;;;11.10;;
5945;SDS011;2998;48.206;16.394;2022-07-24T06:23:52;11.67;;;10.67;;
5945;SDS011;2998;48.206;16.394;2022-07-24T06:26:22;10.90;;;10.00;;
5945;SDS011;2998;48.206;16.394;2022-07-24T06:28:50;11.70;;;10.80;;
5945;SDS011;2998;48.206;16.394;2022-07-24T06:31:18;10.90;;;10.00;;
5945;SDS011;2998;48.206;16.394;2022-07-24T06:33:51;11.30;;;10.40;;
5945;SDS011;2998;48.206;16.394;2022-07-24T06:36:19;10.97;;;10.07;;
5945;SDS011;2998;48.206;16.394;2022-07-24T06:38:47;10.63;;;9.73;;
5945;SDS011;2998;48.206;16.394;2022-07-24T06:41:18;11.13;;;9.97;;
5945;SDS011;2998;48.206;16.394;2022-07-24T06:43:47;10.60;;;9.63;;
5945;SDS011;2998;48.206;16.394;2022-07-24T06:46:15;10.60;;;9.80;;
5945;SDS011;2998;48.206;16.394;2022-07-24T06:48:46;11.77;;;10.40;;
5945;SDS011;2998;48.206;16.394;2022-07-24T06:51:17;10.57;;;9.67;;
5945;SDS011;2998;48.206;16.394;2022-07-24T06:53:45;10.37;;;9.47;;
5945;SDS011;2998;48.206;16.394;2022-07-24T06:56:14;10.77;;;9.97;;
5945;SDS011;2998;48.206;16.394;2022-07-24T06:58:43;10.50;;;9.60;;
5945;SDS011;2998;48.206;16.394;2022-07-24T07:01:11;10.33;;;9.33;;
5945;SDS011;2998;48.206;16.394;2022-07-24T07:03:40;10.40;;;9.60;;
5945;SDS011;2998;48.206;16.394;2022-07-24T07:06:09;11.37;;;10.50;;
5945;SDS011;2998;48.206;16.394;2022-07-24T07:08:40;11.10;;;10.20;;
5945;SDS011;2998;48.206;16.394;2022-07-24T07:11:11;9.80;;;8.90;;
5945;SDS011;2998;48.206;16.394;2022-07-24T07:13:39;9.40;;;8.70;;
5945;SDS011;2998;48.206;16.394;2022-07-24T07:16:09;10.40;;;9.50;;
5945;SDS011;2998;48.206;16.394;2022-07-24T07:18:38;10.17;;;9.27;;
5945;SDS011;2998;48.206;16.394;2022-07-24T07:21:06;10.27;;;9.50;;
5945;SDS011;2998;48.206;16.394;2022-07-24T07:23:34;9.73;;;8.83;;
5945;SDS011;2998;48.206;16.394;2022-07-24T07:26:05;9.83;;;9.07;;
5945;SDS011;2998;48.206;16.394;2022-07-24T07:28:35;10.53;;;9.53;;
5945;SDS011;2998;48.206;16.394;2022-07-24T07:31:04;9.10;;;8.30;;
5945;SDS011;2998;48.206;16.394;2022-07-24T07:33:33;8.90;;;8.30;;
5945;SDS011;2998;48.206;16.394;2022-07-24T07:36:01;9.50;;;8.70;;
5945;SDS011;2998;48.206;16.394;2022-07-24T07:38:30;9.40;;;8.60;;
5945;SDS011;2998;48.206;16.394;2022-07-24T07:40:58;9.53;;;8.20;;
5945;SDS011;2998;48.206;16.394;2022-07-24T07:43:29;9.30;;;8.47;;
5945;SDS011;2998;48.206;16.394;2022-07-24T07:45:58;8.57;;;7.97;;
5945;SDS011;2998;48.206;16.394;2022-07-24T07:48:27;9.17;;;8.57;;
5945;SDS011;2998;48.206;16.394;2022-07-24T07:50:57;9.97;;;8.83;;
5945;SDS011;2998;48.206;16.394;2022-07-24T07:53:25;8.60;;;8.00;;
5945;SDS011;2998;48.206;16.394;2022-07-24T07:55:53;8.47;;;7.87;;
5945;SDS011;2998;48.206;16.394;2022-07-24T07:58:23;7.93;;;7.43;;
5945;SDS011;2998;48.206;16.394;2022-07-24T08:00:56;8.40;;;7.70;;
5945;SDS011;2998;48.206;16.394;2022-07-24T08:03:24;8.80;;;7.90;;
5945;SDS011;2998;48.206;16.394;2022-07-24T08:05:53;8.47;;;7.77;;
5945;SDS011;2998;48.206;16.394;2022-07-24T08:08:25;9.10;;;8.37;;
5945;SDS011;2998;48.206;16.394;2022-07-24T08:10:55;8.37;;;7.60;;
5945;SDS011;2998;48.206;16.394;2022-07-24T08:13:24;9.70;;;9.00;;
5945;SDS011;2998;48.206;16.394;2022-07-24T08:15:53;8.90;;;8.30;;
5945;SDS011;2998;48.206;16.394;2022-07-24T08:18:23;9.10;;;8.30;;
5945;SDS011;2998;48.206;16.394;2022-07-24T08:20:54;7.10;;;6.70;;
5945;SDS011;2998;48.206;16.394;2022-07-24T08:23:22;7.87;;;7.27;;
5945;SDS011;2998;48.206;16.394;2022-07-24T08:25:51;7.80;;;7.30;;
5945;SDS011;2998;48.206;16.394;2022-07-24T08:28:21;8.20;;;7.40;;
5945;SDS011;2998;48.206;16.394;2022-07-24T08:30:50;7.90;;;7.30;;
5945;SDS011;2998;48.206;16.394;2022-07-24T08:33:20;10.50;;;7.30;;
5945;SDS011;2998;48.206;16.394;2022-07-24T08:35:50;7.20;;;6.70;;
5945;SDS011;2998;48.206;16.394;2022-07-24T08:38:19;7.77;;;7.20;;
5945;SDS011;2998;48.206;16.394;2022-07-24T08:40:47;7.53;;;7.00;;
5945;SDS011;2998;48.206;16.394;2022-07-24T08:43:16;7.73;;;7.13;;
5945;SDS011;2998;48.206;16.394;2022-07-24T08:45:45;7.30;;;6.80;;
5945;SDS011;2998;48.206;16.394;2022-07-24T08:48:16;8.00;;;7.40;;
5945;SDS011;2998;48.206;16.394;2022-07-24T08:50:44;7.17;;;6.67;;
5945;SDS011;2998;48.206;16.394;2022-07-24T08:53:18;7.60;;;6.90;;
5945;SDS011;2998;48.206;16.394;2022-07-24T08:55:48;7.17;;;6.53;;
5945;SDS011;2998;48.206;16.394;2022-07-24T08:58:18;6.93;;;6.43;;
5945;SDS011;2998;48.206;16.394;2022-07-24T09:00:46;7.40;;;6.90;;
5945;SDS011;2998;48.206;16.394;2022-07-24T09:03:15;7.10;;;6.63;;
5945;SDS011;2998;48.206;16.394;2022-07-24T09:05:54;6.40;;;5.93;;
5945;SDS011;2998;48.206;16.394;2022-07-24T09:08:26;6.80;;;6.40;;
5945;SDS011;2998;48.206;16.394;2022-07-24T09:10:55;6.70;;;6.30;;
5945;SDS011;2998;48.206;16.394;2022-07-24T09:13:29;5.97;;;5.50;;
5945;SDS011;2998;48.206;16.394;2022-07-24T09:16:18;6.57;;;6.17;;
5945;SDS011;2998;48.206;16.394;2022-07-24T09:19:01;6.70;;;6.23;;
5945;SDS011;2998;48.206;16.394;2022-07-24T09:21:38;7.07;;;6.50;;
5945;SDS011;2998;48.206;16.394;2022-07-24T09:24:13;6.70;;;6.30;;
5945;SDS011;2998;48.206;16.394;2022-07-24T09:26:44;6.43;;;5.90;;
5945;SDS011;2998;48.206;16.394;2022-07-24T09:29:13;7.47;;;6.83;;
5945;SDS011;2998;48.206;16.394;2022-07-24T09:31:48;6.50;;;6.00;;
5945;SDS011;2998;48.206;16.394;2022-07-24T09:34:20;6.53;;;6.03;;
5945;SDS011;2998;48.206;16.394;2022-07-24T09:36:55;6.93;;;6.53;;
5945;SDS011;2998;48.206;16.394;2022-07-24T09:39:26;6.90;;;6.50;;
5945;SDS011;2998;48.206;16.394;2022-07-24T09:41:58;10.13;;;6.23;;
5945;SDS011;2998;48.206;16.394;2022-07-24T09:44:27;7.00;;;6.40;;
5945;SDS011;2998;48.206;16.394;2022-07-24T09:46:57;6.93;;;6.43;;
5945;SDS011;2998;48.206;16.394;2022-07-24T09:49:29;7.17;;;6.13;;
5945;SDS011;2998;48.206;16.394;2022-07-24T09:52:06;6.00;;;5.63;;
5945;SDS011;2998;48.206;16.394;2022-07-24T09:54:40;9.93;;;6.87;;
5945;SDS011;2998;48.206;16.394;2022-07-24T09:57:16;6.27;;;5.90;;
5945;SDS011;2998;48.206;16.394;2022-07-24T09:59:48;6.70;;;6.00;;
5945;SDS011;2998;48.206;16.394;2022-07-24T10:02:24;6.27;;;5.77;;
5945;SDS011;2998;48.206;16.394;2022-07-24T10:04:54;5.67;;;5.37;;
5945;SDS011;2998;48.206;16.394;2022-07-24T10:07:23;6.40;;;6.00;;
5945;SDS011;2998;48.206;16.394;2022-07-24T10:09:57;5.73;;;5.33;;
5945;SDS011;2998;48.206;16.394;2022-07-24T10:12:27;6.13;;;5.73;;
5945;SDS011;2998;48.206;16.394;2022-07-24T10:14:59;6.47;;;5.97;;
5945;SDS011;2998;48.206;16.394;2022-07-24T10:17:31;5.23;;;4.93;;
5945;SDS011;2998;48.206;16.394;2022-07-24T10:20:06;6.50;;;5.20;;
5945;SDS011;2998;48.206;16.394;2022-07-24T10:23:00;5.97;;;5.67;;
5945;SDS011;2998;48.206;16.394;2022-07-24T10:25:37;6.07;;;5.67;;
5945;SDS011;2998;48.206;16.394;2022-07-24T10:28:13;5.90;;;5.60;;
5945;SDS011;2998;48.206;16.394;2022-07-24T10:30:43;6.20;;;5.83;;
5945;SDS011;2998;48.206;16.394;2022-07-24T10:33:16;5.80;;;5.40;;
5945;SDS011;2998;48.206;16.394;2022-07-24T10:35:47;6.03;;;5.70;;
5945;SDS011;2998;48.206;16.394;2022-07-24T10:38:17;5.83;;;5.43;;
5945;SDS011;2998;48.206;16.394;2022-07-24T10:40:52;5.80;;;5.37;;
5945;SDS011;2998;48.206;16.394;2022-07-24T10:43:23;5.50;;;5.13;;
5945;SDS011;2998;48.206;16.394;2022-07-24T10:48:38;7.10;;;6.50;;
5945;SDS011;2998;48.206;16.394;2022-07-24T10:51:15;5.83;;;5.43;;
5945;SDS011;2998;48.206;16.394;2022-07-24T10:53:49;5.23;;;4.93;;
5945;SDS011;2998;48.206;16.394;2022-07-24T10:56:22;5.07;;;4.87;;
5945;SDS011;2998;48.206;16.394;2022-07-24T10:59:00;5.47;;;5.07;;
5945;SDS011;2998;48.206;16.394;2022-07-24T11:01:42;6.57;;;6.07;;
5945;SDS011;2998;48.206;16.394;2022-07-24T11:04:26;5.33;;;4.93;;
5945;SDS011;2998;48.206;16.394;2022-07-24T11:06:59;5.30;;;5.00;;
5945;SDS011;2998;48.206;16.394;2022-07-24T11:09:36;6.17;;;5.57;;
5945;SDS011;2998;48.206;16.394;2022-07-24T11:12:26;5.77;;;5.47;;
5945;SDS011;2998;48.206;16.394;2022-07-24T11:14:58;5.50;;;5.10;;
5945;SDS011;2998;48.206;16.394;2022-07-24T11:17:51;5.47;;;5.07;;
5945;SDS011;2998;48.206;16.394;2022-07-24T11:20:22;5.07;;;4.70;;
5945;SDS011;2998;48.206;16.394;2022-07-24T11:22:51;5.57;;;5.07;;
5945;SDS011;2998;48.206;16.394;2022-07-24T11:25:25;5.50;;;5.20;;
5945;SDS011;2998;48.206;16.394;2022-07-24T11:27:58;5.50;;;4.77;;
5945;SDS011;2998;48.206;16.394;2022-07-24T11:30:29;5.10;;;4.80;;
5945;SDS011;2998;48.206;16.394;2022-07-24T11:32:59;5.33;;;5.00;;
5945;SDS011;2998;48.206;16.394;2022-07-24T11:35:32;5.20;;;4.90;;
5945;SDS011;2998;48.206;16.394;2022-07-24T11:38:03;4.87;;;4.50;;
5945;SDS011;2998;48.206;16.394;2022-07-24T11:40:35;6.13;;;5.13;;
5945;SDS011;2998;48.206;16.394;2022-07-24T11:43:06;5.17;;;4.97;;
5945;SDS011;2998;48.206;16.394;2022-07-24T11:45:39;4.90;;;4.60;;
5945;SDS011;2998;48.206;16.394;2022-07-24T11:48:17;4.83;;;4.60;;
5945;SDS011;2998;48.206;16.394;2022-07-24T11:51:02;5.27;;;4.97;;
5945;SDS011;2998;48.206;16.394;2022-07-24T11:53:52;5.30;;;5.00;;
5945;SDS011;2998;48.206;16.394;2022-07-24T11:56:21;5.77;;;5.40;;
5945;SDS011;2998;48.206;16.394;2022-07-24T11:58:53;6.33;;;5.90;;
5945;SDS011;2998;48.206;16.394;2022-07-24T12:01:24;5.90;;;5.60;;
5945;SDS011;2998;48.206;16.394;2022-07-24T12:03:53;4.87;;;4.67;;
5945;SDS011;2998;48.206;16.394;2022-07-24T12:06:26;6.30;;;5.70;;
5945;SDS011;2998;48.206;16.394;2022-07-24T12:08:57;6.00;;;5.60;;
5945;SDS011;2998;48.206;16.394;2022-07-24T12:11:33;5.77;;;5.37;;
5945;SDS011;2998;48.206;16.394;2022-07-24T12:14:05;5.13;;;4.73;;
5945;SDS011;2998;48.206;16.394;2022-07-24T12:16:42;5.73;;;5.33;;
5945;SDS011;2998;48.206;16.394;2022-07-24T12:19:16;5.47;;;5.17;;
5945;SDS011;2998;48.206;16.394;2022-07-24T12:21:45;5.00;;;4.80;;
5945;SDS011;2998;48.206;16.394;2022-07-24T12:24:15;4.67;;;4.27;;
5945;SDS011;2998;48.206;16.394;2022-07-24T12:26:54;5.60;;;5.30;;
5945;SDS011;2998;48.206;16.394;2022-07-24T12:29:24;6.10;;;4.87;;
5945;SDS011;2998;48.206;16.394;2022-07-24T12:34:45;5.83;;;5.53;;
5945;SDS011;2998;48.206;16.394;2022-07-24T12:37:37;4.90;;;4.70;;
5945;SDS011;2998;48.206;16.394;2022-07-24T12:40:07;4.70;;;4.50;;
5945;SDS011;2998;48.206;16.394;2022-07-24T12:42:36;6.23;;;5.70;;
5945;SDS011;2998;48.206;16.394;2022-07-24T12:45:09;5.23;;;4.90;;
5945;SDS011;2998;48.206;16.394;2022-07-24T12:50:34;6.27;;;5.97;;
5945;SDS011;2998;48.206;16.394;2022-07-24T12:53:23;7.87;;;7.27;;
5945;SDS011;2998;48.206;16.394;2022-07-24T12:56:07;6.90;;;6.40;;
5945;SDS011;2998;48.206;16.394;2022-07-24T12:58:56;7.10;;;6.00;;
5945;SDS011;2998;48.206;16.394;2022-07-24T13:01:27;7.03;;;6.27;;
5945;SDS011;2998;48.206;16.394;2022-07-24T13:04:04;7.27;;;6.77;;
5945;SDS011;2998;48.206;16.394;2022-07-24T13:06:33;6.73;;;6.33;;
5945;SDS011;2998;48.206;16.394;2022-07-24T13:09:05;7.37;;;6.77;;
5945;SDS011;2998;48.206;16.394;2022-07-24T13:11:36;6.73;;;6.23;;
5945;SDS011;2998;48.206;16.394;2022-07-24T13:14:05;6.27;;;5.70;;
5945;SDS011;2998;48.206;16.394;2022-07-24T13:16:38;6.80;;;6.30;;
5945;SDS011;2998;48.206;16.394;2022-07-24T13:19:09;6.20;;;5.90;;
5945;SDS011;2998;48.206;16.394;2022-07-24T13:21:38;6.90;;;6.50;;
5945;SDS011;2998;48.206;16.394;2022-07-24T13:24:08;7.40;;;6.90;;
5945;SDS011;2998;48.206;16.394;2022-07-24T13:26:37;6.60;;;6.10;;
5945;SDS011;2998;48.206;16.394;2022-07-24T13:29:06;6.63;;;6.03;;
5945;SDS011;2998;48.206;16.394;2022-07-24T13:31:36;6.67;;;6.23;;
5945;SDS011;2998;48.206;16.394;2022-07-24T13:34:07;7.20;;;6.60;;
5945;SDS011;2998;48.206;16.394;2022-07-24T13:36:42;6.80;;;6.30;;
5945;SDS011;2998;48.206;16.394;2022-07-24T13:39:14;5.47;;;5.17;;
5945;SDS011;2998;48.206;16.394;2022-07-24T13:41:44;6.53;;;6.07;;
5945;SDS011;2998;48.206;16.394;2022-07-24T13:44:12;6.00;;;5.67;;
5945;SDS011;2998;48.206;16.394;2022-07-24T13:46:45;5.63;;;5.33;;
5945;SDS011;2998;48.206;16.394;2022-07-24T13:49:16;6.37;;;5.90;;
5945;SDS011;2998;48.206;16.394;2022-07-24T13:51:45;5.63;;;5.27;;
5945;SDS011;2998;48.206;16.394;2022-07-24T13:54:16;5.80;;;5.40;;
5945;SDS011;2998;48.206;16.394;2022-07-24T13:56:44;6.27;;;5.77;;
5945;SDS011;2998;48.206;16.394;2022-07-24T13:59:13;5.77;;;5.47;;
5945;SDS011;2998;48.206;16.394;2022-07-24T14:01:43;5.87;;;5.47;;
5945;SDS011;2998;48.206;16.394;2022-07-24T14:04:13;6.40;;;6.00;;
5945;SDS011;2998;48.206;16.394;2022-07-24T14:06:58;5.60;;;5.20;;
5945;SDS011;2998;48.206;16.394;2022-07-24T14:09:30;6.33;;;5.83;;
5945;SDS011;2998;48.206;16.394;2022-07-24T14:11:58;5.60;;;5.30;;
5945;SDS011;2998;48.206;16.394;2022-07-24T14:14:26;5.93;;;5.53;;
5945;SDS011;2998;48.206;16.394;2022-07-24T14:16:56;4.93;;;4.70;;
5945;SDS011;2998;48.206;16.394;2022-07-24T14:19:25;6.17;;;5.67;;
5945;SDS011;2998;48.206;16.394;2022-07-24T14:21:54;5.63;;;5.33;;
5945;SDS011;2998;48.206;16.394;2022-07-24T14:24:22;5.30;;;4.90;;
5945;SDS011;2998;48.206;16.394;2022-07-24T14:26:51;5.27;;;4.97;;
5945;SDS011;2998;48.206;16.394;2022-07-24T14:29:20;5.97;;;4.93;;
5945;SDS011;2998;48.206;16.394;2022-07-24T14:31:48;5.50;;;5.10;;
5945;SDS011;2998;48.206;16.394;2022-07-24T14:34:19;5.20;;;4.90;;
5945;SDS011;2998;48.206;16.394;2022-07-24T14:36:49;5.33;;;5.03;;
5945;SDS011;2998;48.206;16.394;2022-07-24T14:39:17;5.27;;;4.97;;
5945;SDS011;2998;48.206;16.394;2022-07-24T14:41:46;5.23;;;4.93;;
5945;SDS011;2998;48.206;16.394;2022-07-24T14:44:15;5.33;;;5.13;;
5945;SDS011;2998;48.206;16.394;2022-07-24T14:46:46;5.07;;;4.80;;
5945;SDS011;2998;48.206;16.394;2022-07-24T14:49:16;4.97;;;4.60;;
5945;SDS011;2998;48.206;16.394;2022-07-24T14:51:45;5.33;;;4.93;;
5945;SDS011;2998;48.206;16.394;2022-07-24T14:54:13;5.77;;;5.33;;
5945;SDS011;2998;48.206;16.394;2022-07-24T14:56:41;5.10;;;4.70;;
5945;SDS011;2998;48.206;16.394;2022-07-24T14:59:10;5.17;;;4.87;;
5945;SDS011;2998;48.206;16.394;2022-07-24T15:01:46;5.03;;;4.63;;
5945;SDS011;2998;48.206;16.394;2022-07-24T15:04:16;5.40;;;5.03;;
5945;SDS011;2998;48.206;16.394;2022-07-24T15:06:46;5.70;;;5.23;;
5945;SDS011;2998;48.206;16.394;2022-07-24T15:09:17;5.83;;;5.47;;
5945;SDS011;2998;48.206;16.394;2022-07-24T15:11:47;5.90;;;5.50;;
5945;SDS011;2998;48.206;16.394;2022-07-24T15:14:16;5.23;;;4.93;;
5945;SDS011;2998;48.206;16.394;2022-07-24T15:16:46;5.97;;;5.50;;
5945;SDS011;2998;48.206;16.394;2022-07-24T15:19:16;6.00;;;5.40;;
5945;SDS011;2998;48.206;16.394;2022-07-24T15:21:47;5.23;;;4.87;;